Latest Weather Observations for Ouse

IDT60801

Issued at 10:02 pm EST Wednesday 27 May 2015 (issued every 30 minutes, with the page automatically refreshed every 10 minutes)

About weather observations | Map of weather stations | Latest weather observations for TAS | Other Formats
Station Details ID: 095048 Name: OUSE FIRE STATION Lat: -42.48 Lon: 146.71 Height: 90.0 m
Data from the previous 72 hours. | See also: Recent months at Ouse
Date/Time
EST
Temp
°C
App
Temp
°C
Dew
Point
Rel
Hum
%
Delta-T
°C
Wind Press
QNH
hPa
Press
MSL
hPa
Rain
since 9 am
mm
Dir
 
Spd
km/h
Gust
km/h
Spd
kts
Gust
kts
27/10:00pm 6.1 4.8 6.1 100 0.0 SSE 2 7 1 4 1011.4 1011.5 0.0
27/09:30pm 5.1 4.0 5.1 100 0.0 CALM 0 0 0 0 1011.5 1011.7 0.0
27/09:00pm 4.4 3.2 4.4 100 0.0 CALM 0 0 0 0 1011.8 1012.0 0.0
27/08:30pm 4.1 2.8 4.1 100 0.0 CALM 0 0 0 0 1011.9 1012.1 0.0
27/08:00pm 4.1 2.0 3.8 98 0.1 ENE 4 7 2 4 1012.0 1012.2 0.0
27/07:30pm 4.4 3.0 3.5 94 0.4 CALM 0 0 0 0 1012.2 1012.4 0.0
27/07:00pm 5.7 4.6 5.0 95 0.3 CALM 0 0 0 0 1012.0 1012.2 0.0
27/06:30pm 6.5 5.4 5.0 90 0.7 CALM 0 0 0 0 1012.1 1012.3 0.0
27/06:00pm 7.7 6.7 5.8 88 0.9 CALM 0 0 0 0 1012.2 1012.4 0.0
27/05:30pm 8.2 7.4 6.5 89 0.8 CALM 0 0 0 0 1012.4 1012.6 0.0
27/05:00pm 8.7 7.9 6.5 86 1.0 CALM 0 0 0 0 1012.3 1012.5 0.0
27/04:30pm 8.9 8.0 6.0 82 1.3 CALM 0 0 0 0 1012.6 1012.8 0.0
27/04:00pm 9.6 8.7 6.0 78 1.7 CALM 0 0 0 0 1012.7 1012.9 0.0
27/03:30pm 10.0 8.4 6.2 77 1.8 ENE 4 7 2 4 1012.8 1013.0 0.0
27/03:00pm 9.5 7.5 6.2 80 1.5 S 6 9 3 5 1013.1 1013.3 0.0
27/02:30pm 8.9 6.2 5.8 81 1.4 SE 9 13 5 7 1013.1 1013.3 0.0
27/02:00pm 9.2 6.9 5.8 79 1.6 S 7 9 4 5 1013.5 1013.7 0.0
27/01:30pm 8.8 7.0 5.4 79 1.5 ESE 4 7 2 4 1014.2 1014.4 0.0
27/01:00pm 8.2 7.1 5.3 82 1.3 CALM 0 0 0 0 1014.6 1014.8 0.0
27/12:30pm 7.5 6.4 5.1 85 1.1 CALM 0 0 0 0 1015.0 1015.2 0.0
27/12:00pm 7.0 5.8 4.8 86 1.0 CALM 0 0 0 0 1015.7 1015.9 0.0
27/11:30am 6.3 4.7 4.6 89 0.7 NNE 2 7 1 4 1016.4 1016.5 0.0
27/11:00am 6.3 5.1 4.8 90 0.7 CALM 0 2 0 1 1017.0 1017.1 0.0
27/10:30am 5.1 3.6 4.8 98 0.1 NNE 2 7 1 4 1017.6 1017.7 0.0
27/10:00am 3.9 2.2 3.9 100 0.0 NNE 2 7 1 4 1018.0 1018.1 0.0
27/09:30am 3.0 1.1 3.0 100 0.0 N 2 6 1 3 1018.2 1018.3 0.0
27/09:00am 1.7 0.0 1.7 100 0.0 CALM 0 0 0 0 1018.4 1018.5 0.0
27/08:30am 1.1 -1.5 1.1 100 0.0 N 4 7 2 4 1018.7 1018.8 0.0
27/08:00am 0.5 -2.2 0.5 100 0.0 W 4 9 2 5 1019.1 1019.2 0.0
27/07:30am 0.2 -1.8 0.2 100 0.0 CALM 0 0 0 0 1019.0 1019.1 0.0
27/07:00am 0.4 -1.5 0.4 100 0.0 CALM 0 0 0 0 1019.3 1019.4 0.0
27/06:30am 0.3 -1.6 0.3 100 0.0 CALM 0 0 0 0 1019.4 1019.5 0.0
27/06:00am -0.1 -2.1 -0.1 100 0.0 CALM 0 0 0 0 1019.7 1019.8 0.0
27/05:30am -0.6 -2.7 -0.6 100 0.0 CALM 0 0 0 0 1019.8 1019.9 0.0
27/05:00am -0.2 -2.2 -0.2 100 0.0 CALM 0 0 0 0 1020.3 1020.4 0.0
27/04:30am -0.4 -2.4 -0.4 100 0.0 CALM 0 0 0 0 1020.5 1020.6 0.0
27/04:00am -0.4 -2.4 -0.4 100 0.0 CALM 0 0 0 0 1020.6 1020.7 0.0
27/03:30am 0.3 -1.6 0.3 100 0.0 CALM 0 0 0 0 1021.0 1021.2 0.0
27/03:00am 0.7 -1.2 0.7 100 0.0 CALM 0 0 0 0 1021.5 1021.7 0.0
27/02:30am 0.9 -1.7 0.9 100 0.0 WNW 4 6 2 3 1021.8 1022.0 0.0
27/02:00am 0.6 -1.7 0.6 100 0.0 N 2 7 1 4 1022.1 1022.3 0.0
27/01:30am 0.2 -2.9 0.2 100 0.0 N 6 6 3 3 1022.3 1022.5 0.0
27/01:00am 0.4 -2.7 0.4 100 0.0 N 6 7 3 4 1022.6 1022.8 0.0
27/12:30am 0.7 -1.2 0.6 99 0.0 CALM 0 0 0 0 1022.7 1022.9 0.0
27/12:00am 1.6 -0.1 1.6 100 0.0 CALM 0 0 0 0 1022.8 1023.0 0.0
 
Date/Time
EST
Temp
°C
App
Temp
°C
Dew
Point
Rel
Hum
%
Delta-T
°C
Wind Press
QNH
hPa
Press
MSL
hPa
Rain
since 9 am
mm
Dir
 
Spd
km/h
Gust
km/h
Spd
kts
Gust
kts
26/11:30pm 1.8 0.1 1.8 100 0.0 CALM 0 0 0 0 1023.0 1023.2 0.0
26/11:00pm 2.1 0.4 2.1 100 0.0 CALM 0 0 0 0 1023.3 1023.5 0.0
26/10:30pm 2.2 0.1 1.9 98 0.1 NNE 2 6 1 3 1023.7 1023.9 0.0
26/10:00pm 2.7 1.1 2.4 98 0.1 CALM 0 0 0 0 1024.0 1024.2 0.0
26/09:30pm 3.6 2.2 3.3 98 0.1 CALM 0 0 0 0 1024.1 1024.3 0.0
26/09:00pm 3.6 2.0 2.7 94 0.4 CALM 0 0 0 0 1024.1 1024.3 0.0
26/08:30pm 4.9 3.6 4.2 95 0.3 CALM 0 0 0 0 1024.2 1024.4 0.0
26/08:00pm 5.6 4.4 4.4 92 0.5 CALM 0 0 0 0 1024.2 1024.4 0.0
26/07:30pm 6.5 5.3 4.8 89 0.7 CALM 0 0 0 0 1024.3 1024.5 0.0
26/07:00pm 7.7 6.8 6.2 90 0.7 CALM 0 0 0 0 1024.3 1024.5 0.0
26/06:30pm 7.7 6.8 6.0 89 0.8 CALM 0 0 0 0 1024.4 1024.6 0.0
26/06:00pm 8.1 6.1 6.4 89 0.8 E 6 7 3 4 1024.2 1024.4 0.0
26/05:30pm 8.3 6.6 5.9 85 1.1 NNW 4 6 2 3 1024.3 1024.5 0.0
26/05:00pm 9.9 8.7 6.4 79 1.6 NW 2 7 1 4 1024.1 1024.3 0.0
26/04:30pm 12.7 10.4 7.6 71 2.5 N 9 9 5 5 1024.2 1024.4 0.0
26/04:00pm 14.8 13.3 8.3 65 3.3 NW 6 9 3 5 1024.2 1024.4 0.0
26/03:30pm 15.2 14.8 8.2 63 3.5 CALM 0 0 0 0 1024.3 1024.5 0.0
26/03:00pm 13.9 11.3 7.7 66 3.1 WSW 11 17 6 9 1024.4 1024.6 0.0
26/02:30pm 14.9 11.6 7.9 63 3.5 WSW 15 20 8 11 1024.6 1024.8 0.0
26/02:00pm 15.5 12.3 8.3 62 3.6 WSW 15 22 8 12 1024.6 1024.8 0.0
26/01:30pm 16.4 12.5 8.6 60 4.0 WSW 19 28 10 15 1024.7 1024.9 0.0
26/01:00pm 16.8 13.6 8.5 58 4.2 W 15 26 8 14 1024.8 1025.0 0.0
26/12:30pm 15.7 12.4 8.0 60 3.9 WNW 15 20 8 11 1025.1 1025.3 0.0
26/12:00pm 16.8 13.1 8.0 56 4.5 WNW 17 28 9 15 1025.2 1025.4 0.0
26/11:30am 15.9 12.1 7.7 58 4.1 NW 17 24 9 13 1025.7 1025.9 0.0
26/11:00am 15.3 11.6 7.8 61 3.7 WNW 17 24 9 13 1026.2 1026.4 0.0
26/10:30am 15.0 11.5 7.3 60 3.8 NW 15 24 8 13 1026.3 1026.5 0.0
26/10:00am 14.2 11.9 7.5 64 3.3 NW 9 19 5 10 1026.4 1026.6 0.0
26/09:30am 12.9 11.4 8.6 75 2.2 NNW 6 9 3 5 1026.7 1026.9 0.0
26/09:00am 12.2 10.6 8.7 79 1.7 NW 7 13 4 7 1026.7 1026.9 0.0
26/08:30am 8.2 6.1 8.2 100 0.0 N 9 13 5 7 1026.8 1027.0 0.0
26/08:00am 6.4 5.6 6.4 100 0.0 CALM 0 6 0 3 1026.5 1026.7 0.0
26/07:30am 6.1 4.8 6.1 100 0.0 WSW 2 7 1 4 1026.4 1026.6 0.0
26/07:00am 4.6 2.1 4.6 100 0.0 N 7 9 4 5 1026.2 1026.4 0.0
26/06:30am 4.1 1.7 4.1 100 0.0 NW 6 9 3 5 1026.0 1026.2 0.0
26/06:00am 4.2 1.7 3.8 97 0.2 NNW 6 9 3 5 1025.8 1026.0 0.0
26/05:30am 5.0 3.8 4.6 97 0.2 CALM 0 0 0 0 1025.7 1025.9 0.0
26/05:00am 5.9 4.1 5.3 96 0.3 NW 4 7 2 4 1025.6 1025.8 0.0
26/04:30am 6.6 3.9 5.7 94 0.4 N 9 15 5 8 1025.6 1025.8 0.0
26/04:00am 7.6 5.7 6.5 93 0.5 NW 6 7 3 4 1025.6 1025.8 0.0
26/03:30am 7.9 4.9 6.0 88 0.9 SE 11 15 6 8 1025.6 1025.8 0.0
26/03:00am 9.5 7.2 7.6 88 0.9 NNW 9 13 5 7 1025.7 1025.9 0.0
26/02:30am 9.7 7.4 7.3 85 1.1 N 9 11 5 6 1025.8 1026.0 0.0
26/02:00am 11.5 8.6 8.2 80 1.6 NW 13 20 7 11 1025.6 1025.8 0.0
26/01:30am 10.2 7.6 7.6 84 1.3 NW 11 15 6 8 1025.6 1025.8 0.0
26/01:00am 7.9 5.4 6.7 92 0.6 N 9 13 5 7 1025.4 1025.6 0.0
26/12:30am 7.9 5.9 6.4 90 0.7 N 6 7 3 4 1025.6 1025.8 0.0
26/12:00am 7.6 5.0 6.2 91 0.6 N 9 11 5 6 1025.6 1025.8 0.0
 
Date/Time
EST
Temp
°C
App
Temp
°C
Dew
Point
Rel
Hum
%
Delta-T
°C
Wind Press
QNH
hPa
Press
MSL
hPa
Rain
since 9 am
mm
Dir
 
Spd
km/h
Gust
km/h
Spd
kts
Gust
kts
25/11:30pm 7.7 5.4 5.7 87 0.9 NNW 7 9 4 5 1025.6 1025.8 0.0
25/11:00pm 9.0 6.4 6.3 83 1.2 N 9 13 5 7 1025.6 1025.8 0.0
25/10:30pm 7.5 4.9 6.1 91 0.6 NNW 9 11 5 6 1025.9 1026.1 0.0
25/10:00pm 7.3 5.3 6.1 92 0.5 SSW 6 9 3 5 1025.9 1026.1 0.0
25/09:30pm 7.3 5.1 5.4 88 0.8 NNE 6 9 3 5 1026.2 1026.4 0.0
25/09:00pm 8.0 5.4 6.1 88 0.9 NNW 9 13 5 7 1026.1 1026.3 0.0
25/08:30pm 7.2 5.0 6.3 94 0.4 NNW 7 11 4 6 1026.2 1026.4 0.0
25/08:00pm 6.3 4.1 6.2 99 0.0 NNW 7 11 4 6 1026.3 1026.5 0.0
25/07:30pm 5.2 3.6 4.6 96 0.3 N 2 7 1 4 1026.5 1026.7 0.0
25/07:00pm 5.5 4.3 4.5 93 0.4 CALM 0 0 0 0 1026.4 1026.6 0.0
25/06:30pm 6.0 4.9 5.0 93 0.4 CALM 0 0 0 0 1026.3 1026.5 0.0
25/06:00pm 6.3 5.2 5.3 93 0.4 CALM 0 0 0 0 1026.3 1026.5 0.0
25/05:30pm 6.3 4.3 4.6 89 0.7 S 4 9 2 5 1026.0 1026.2 0.0
25/05:00pm 7.9 6.9 5.5 85 1.1 CALM 0 0 0 0 1025.8 1026.0 0.0
25/04:30pm 8.9 7.9 5.8 81 1.4 CALM 0 0 0 0 1025.8 1026.0 0.0
25/04:00pm 9.3 7.9 5.3 76 1.8 SSE 2 7 1 4 1025.8 1026.0 0.0
25/03:30pm 9.6 7.4 5.4 75 1.9 SSE 6 9 3 5 1026.1 1026.3 0.0
25/03:00pm 9.8 7.7 5.6 75 1.9 ESE 6 9 3 5 1026.1 1026.3 0.0
25/02:30pm 9.2 8.1 5.0 75 1.9 CALM 0 0 0 0 1026.3 1026.5 0.0
25/02:00pm 8.8 6.8 4.6 75 1.9 S 4 9 2 5 1026.5 1026.7 0.0
25/01:30pm 8.6 6.6 4.4 75 1.9 NE 4 7 2 4 1026.9 1027.1 0.0
25/01:00pm 8.2 5.9 4.8 79 1.5 SE 6 7 3 4 1027.2 1027.4 0.0
25/12:30pm 7.7 5.1 4.1 78 1.6 ESE 7 11 4 6 1027.5 1027.7 0.0
25/12:00pm 8.5 7.0 4.9 78 1.6 SSE 2 7 1 4 1027.7 1027.8 0.0
25/11:30am 7.0 4.5 4.7 85 1.0 SE 7 11 4 6 1028.3 1028.4 0.0
25/11:00am 6.1 4.8 4.1 87 0.8 CALM 0 0 0 0 1028.8 1028.9 0.0
25/10:30am 5.3 3.6 4.0 91 0.6 N 2 7 1 4 1029.1 1029.2 0.0
25/10:00am 4.6 3.2 3.6 93 0.4 CALM 0 0 0 0 1029.2 1029.3 0.0
25/09:30am 4.1 2.7 3.5 96 0.2 CALM 0 6 0 3 1029.3 1029.4 0.0
25/09:00am 3.9 2.6 3.9 100 0.0 CALM 0 0 0 0 1029.3 1029.4 0.0
25/08:30am 1.7 0.0 1.7 100 0.0 CALM 0 0 0 0 1029.3 1029.4 0.0
25/08:00am 1.6 -0.1 1.6 100 0.0 CALM 0 0 0 0 1029.2 1029.3 0.0
25/07:30am 1.9 0.2 1.9 100 0.0 CALM 0 0 0 0 1029.1 1029.2 0.0
25/07:00am 1.8 0.1 1.8 100 0.0 CALM 0 0 0 0 1029.1 1029.2 0.0
25/06:30am 1.7 0.0 1.7 100 0.0 CALM 0 0 0 0 1028.9 1029.0 0.0
25/06:00am 1.7 0.0 1.7 100 0.0 CALM 0 0 0 0 1028.7 1028.8 0.0
25/05:30am 2.1 0.4 2.1 100 0.0 CALM 0 0 0 0 1028.6 1028.7 0.0
25/05:00am 2.3 0.7 2.3 100 0.0 CALM 0 0 0 0 1028.6 1028.7 0.0
25/04:30am 2.7 0.4 2.7 100 0.0 SSE 4 7 2 4 1028.6 1028.7 0.0
25/04:00am 2.6 -0.1 2.6 100 0.0 SSE 6 7 3 4 1028.7 1028.8 0.0
25/03:30am 2.3 0.7 2.3 100 0.0 CALM 0 0 0 0 1028.9 1029.0 0.0
25/03:00am 2.1 0.4 2.1 100 0.0 CALM 0 6 0 3 1028.9 1029.0 0.0
25/02:30am 1.9 0.2 1.9 100 0.0 CALM 0 0 0 0 1029.2 1029.3 0.0
25/02:00am 1.6 -0.1 1.6 100 0.0 CALM 0 0 0 0 1029.2 1029.3 0.0
25/01:30am 1.3 -1.6 1.3 100 0.0 SSE 6 7 3 4 1029.3 1029.4 0.0
25/01:00am 0.7 -2.9 0.7 100 0.0 SE 9 11 5 6 1029.4 1029.5 0.0
25/12:30am -0.3 -3.5 -0.3 100 0.0 NNW 6 9 3 5 1029.3 1029.4 0.0
25/12:00am -0.6 -2.7 -0.7 99 0.0 CALM 0 0 0 0 1029.8 1030.0 0.0
 
Date/Time
EST
Temp
°C
App
Temp
°C
Dew
Point
Rel
Hum
%
Delta-T
°C
Wind Press
QNH
hPa
Press
MSL
hPa
Rain
since 9 am
mm
Dir
 
Spd
km/h
Gust
km/h
Spd
kts
Gust
kts
24/11:30pm -0.4 -3.6 -0.5 99 0.0 NNW 6 7 3 4 1029.7 1029.8 0.0
24/11:00pm 0.0 -2.0 -0.3 98 0.1 CALM 0 0 0 0 1029.7 1029.8 0.0
24/10:30pm 0.4 -1.6 0.0 97 0.1 CALM 0 0 0 0 1029.7 1029.8 0.0

Other Formats:

Comma delimited format used in spreadsheet applications
http://www.bom.gov.au/fwo/IDT60801/IDT60801.94957.axf

JavaScript Object Notation format (JSON) in row-major order
http://www.bom.gov.au/fwo/IDT60801/IDT60801.94957.json